Time;durP1;ratioP1;P1;durP2;ratioP2;P2;SDS_P1;SDS_P2;PMS_P1;PMS_P2;Temp;Humidity;BMP_temperature;BMP_pressure;BME280_temperature;BME280_humidity;BME280_pressure;Samples;Min_cycle;Max_cycle;Signal;HPM_P1;HPM_P2
2022/06/05 00:01:41;;;;;;;;;;;;;;;12.59;100.00;99498.09;5151604;27;19923;-48
2022/06/05 00:04:11;;;;;;;;;;;;;;;12.55;100.00;99489.03;5152020;27;19927;-50
2022/06/05 00:06:43;;;;;;;;;;;;;;;12.47;100.00;99479.09;5151770;27;19923;-50
2022/06/05 00:09:13;;;;;;;;;;;;;;;12.42;100.00;99473.88;5151559;27;19923;-51
2022/06/05 00:11:46;;;;;;;;;;;;;;;12.32;100.00;99450.56;5151698;27;20378;-50
2022/06/05 00:14:12;;;;;;;;;;;;;;;12.29;100.00;99454.06;5151473;27;19934;-49
2022/06/05 00:16:38;;;;;;;;;;;;;;;12.25;100.00;99464.19;5151528;27;20389;-51
2022/06/05 00:19:04;;;;;;;;;;;;;;;12.18;100.00;99459.38;5151712;27;20308;-49
2022/06/05 00:21:30;;;;;;;;;;;;;;;12.07;100.00;99450.19;5151779;27;20255;-50
2022/06/05 00:23:57;;;;;;;;;;;;;;;12.09;100.00;99455.31;5151541;27;20389;-52
2022/06/05 00:26:26;;;;;;;;;;;;;;;11.93;100.00;99458.19;5151188;27;20409;-52
2022/06/05 00:28:56;;;;;;;;;;;;;;;11.88;100.00;99456.53;5151382;27;19922;-49
2022/06/05 00:31:26;;;;;;;;;;;;;;;11.82;100.00;99460.72;5151374;27;19923;-51
2022/06/05 00:33:52;;;;;;;;;;;;;;;11.78;100.00;99459.88;5151209;27;19927;-49
2022/06/05 00:36:25;;;;;;;;;;;;;;;11.70;100.00;99456.19;5151282;27;19930;-49
2022/06/05 00:38:56;;;;;;;;;;;;;;;11.71;100.00;99449.53;5151376;27;19927;-49
2022/06/05 00:41:32;;;;;;;;;;;;;;;11.68;100.00;99447.53;5150945;27;20397;-48
2022/06/05 00:44:00;;;;;;;;;;;;;;;11.65;100.00;99447.47;5151252;27;19922;-49
2022/06/05 00:46:26;;;;;;;;;;;;;;;11.58;100.00;99450.88;5152660;27;19922;-49
2022/06/05 00:48:52;;;;;;;;;;;;;;;11.56;100.00;99447.69;5154762;27;19926;-48
2022/06/05 00:51:18;;;;;;;;;;;;;;;11.52;100.00;99442.13;5154605;27;20306;-47
2022/06/05 00:53:44;;;;;;;;;;;;;;;11.53;100.00;99442.94;5154603;27;19929;-49
2022/06/05 00:56:12;;;;;;;;;;;;;;;11.48;100.00;99441.28;5154739;27;20305;-48
2022/06/05 00:58:39;;;;;;;;;;;;;;;11.45;100.00;99425.53;5154612;27;19923;-50
2022/06/05 01:01:05;;;;;;;;;;;;;;;11.41;100.00;99419.19;5154543;27;20007;-50
2022/06/05 01:03:31;;;;;;;;;;;;;;;11.42;100.00;99425.47;5154774;27;19922;-47
2022/06/05 01:05:57;;;;;;;;;;;;;;;11.42;100.00;99425.47;5154757;27;20088;-47
2022/06/05 01:08:23;;;;;;;;;;;;;;;11.37;100.00;99423.03;5154624;27;19930;-49
2022/06/05 01:10:55;;;;;;;;;;;;;;;11.36;100.00;99416.72;5154550;27;19923;-48
2022/06/05 01:13:27;;;;;;;;;;;;;;;11.34;100.00;99421.03;5154267;27;19973;-48
2022/06/05 01:15:56;;;;;;;;;;;;;;;11.29;100.00;99422.88;5154601;27;20381;-48
2022/06/05 01:18:27;;;;;;;;;;;;;;;11.26;100.00;99423.63;5154104;27;19975;-50
2022/06/05 01:21:04;;;;;;;;;;;;;;;11.23;100.00;99423.53;5154295;27;20387;-47
2022/06/05 01:23:38;;;;;;;;;;;;;;;11.04;100.00;99427.09;5154164;27;19929;-49
2022/06/05 01:26:11;;;;;;;;;;;;;;;11.19;100.00;99420.72;5154050;27;19923;-49
2022/06/05 01:28:39;;;;;;;;;;;;;;;11.21;100.00;99415.69;5153971;27;19923;-51
2022/06/05 01:31:07;;;;;;;;;;;;;;;11.19;100.00;99420.72;5153946;27;20004;-51
2022/06/05 01:33:37;;;;;;;;;;;;;;;11.17;100.00;99428.53;5154150;27;19929;-50
2022/06/05 01:36:08;;;;;;;;;;;;;;;11.13;100.00;99429.59;5154223;27;19922;-48
2022/06/05 01:38:37;;;;;;;;;;;;;;;11.13;100.00;99429.59;5154042;27;19926;-48
2022/06/05 01:41:06;;;;;;;;;;;;;;;11.08;100.00;99419.72;5153809;27;19967;-47
2022/06/05 01:43:35;;;;;;;;;;;;;;;11.10;100.00;99420.19;5153751;27;19923;-47
2022/06/05 01:46:05;;;;;;;;;;;;;;;11.10;100.00;99414.69;5153772;27;19923;-48
2022/06/05 01:48:35;;;;;;;;;;;;;;;11.10;100.00;99422.91;5153932;27;19933;-47
2022/06/05 01:51:02;;;;;;;;;;;;;;;11.10;100.00;99424.88;5153897;27;19922;-48
2022/06/05 01:53:32;;;;;;;;;;;;;;;11.13;100.00;99424.94;5153657;27;19922;-47
2022/06/05 01:56:01;;;;;;;;;;;;;;;11.13;100.00;99422.19;5153944;27;19926;-48
2022/06/05 01:58:31;;;;;;;;;;;;;;;11.14;100.00;99425.72;5152969;27;20243;-47
2022/06/05 02:01:00;;;;;;;;;;;;;;;11.11;100.00;99421.75;5153839;27;20340;-47
2022/06/05 02:03:30;;;;;;;;;;;;;;;11.16;100.00;99413.25;5153389;27;19948;-47
2022/06/05 02:05:58;;;;;;;;;;;;;;;11.17;100.00;99414.81;5153434;27;19922;-48
2022/06/05 02:08:27;;;;;;;;;;;;;;;11.18;100.00;99419.16;5153377;27;19923;-47
2022/06/05 02:10:58;;;;;;;;;;;;;;;11.12;100.00;99420.59;5153276;27;20309;-47
2022/06/05 02:13:24;;;;;;;;;;;;;;;11.12;100.00;99415.09;5153199;27;20017;-47
2022/06/05 02:15:50;;;;;;;;;;;;;;;11.17;100.00;99425.81;5153274;27;19929;-47
2022/06/05 02:18:17;;;;;;;;;;;;;;;11.23;100.00;99429.03;5153461;27;19946;-47
2022/06/05 02:20:43;;;;;;;;;;;;;;;11.20;100.00;99430.56;5153263;27;19962;-50
2022/06/05 02:23:11;;;;;;;;;;;;;;;11.44;100.00;99428.66;5153505;27;19923;-47
2022/06/05 02:25:37;;;;;;;;;;;;;;;11.84;100.00;99436.47;5153036;27;20009;-51
2022/06/05 02:28:04;;;;;;;;;;;;;;;12.32;100.00;99445.06;5152973;27;19923;-48
2022/06/05 02:30:34;;;;;;;;;;;;;;;12.68;100.00;99478.59;5153202;27;19930;-49
2022/06/05 02:33:05;;;;;;;;;;;;;;;13.02;100.00;99528.19;5153122;27;19930;-50
2022/06/05 02:35:35;;;;;;;;;;;;;;;13.28;100.00;99587.97;5152872;27;20306;-51
2022/06/05 02:38:09;;;;;;;;;;;;;;;13.58;100.00;99641.09;5153171;27;20406;-50
2022/06/05 02:40:41;;;;;;;;;;;;;;;13.88;100.00;99703.69;5152775;27;20010;-51
2022/06/05 02:43:12;;;;;;;;;;;;;;;14.16;100.00;99765.88;5152828;27;19922;-52
2022/06/05 02:45:46;;;;;;;;;;;;;;;14.33;100.00;99818.50;5152795;27;19923;-51
2022/06/05 02:48:14;;;;;;;;;;;;;;;14.57;100.00;99860.63;5152593;27;19946;-51
2022/06/05 02:50:44;;;;;;;;;;;;;;;14.94;100.00;99885.50;5153071;27;19930;-51
2022/06/05 02:53:11;;;;;;;;;;;;;;;14.97;100.00;99890.28;5152838;27;20057;-48
2022/06/05 02:55:37;;;;;;;;;;;;;;;15.32;100.00;99893.81;5152802;27;19923;-49
2022/06/05 02:58:03;;;;;;;;;;;;;;;15.26;100.00;99879.53;5152722;27;19922;-48
2022/06/05 03:00:30;;;;;;;;;;;;;;;15.40;100.00;99871.41;5152601;27;19930;-48
2022/06/05 03:05:42;;;;;;;;;;;;;;;15.94;100.00;99798.03;5152611;27;19930;-48
2022/06/05 03:08:09;;;;;;;;;;;;;;;16.26;100.00;99761.47;5152588;27;19982;-51
2022/06/05 03:10:35;;;;;;;;;;;;;;;16.11;100.00;99712.78;5152400;27;20318;-48
2022/06/05 03:13:01;;;;;;;;;;;;;;;16.50;100.00;99701.84;5152670;27;19984;-49
2022/06/05 03:15:27;;;;;;;;;;;;;;;16.73;100.00;99634.22;5152552;27;19923;-50
2022/06/05 03:17:53;;;;;;;;;;;;;;;16.89;100.00;99590.34;5152663;27;19926;-48
2022/06/05 03:20:19;;;;;;;;;;;;;;;17.26;100.00;99509.56;5152288;27;19923;-51
2022/06/05 03:22:46;;;;;;;;;;;;;;;17.27;100.00;99475.13;5152204;27;19922;-47
2022/06/05 03:25:16;;;;;;;;;;;;;;;17.80;100.00;99470.50;5152299;27;19934;-51
2022/06/05 03:27:42;;;;;;;;;;;;;;;17.68;100.00;99360.81;5152688;27;20460;-51
2022/06/05 03:30:09;;;;;;;;;;;;;;;17.85;100.00;99312.00;5152291;27;20356;-48
2022/06/05 03:32:35;;;;;;;;;;;;;;;17.99;100.00;99239.72;5152051;27;20013;-48
2022/06/05 03:35:00;;;;;;;;;;;;;;;18.33;100.00;99198.13;5152218;27;19926;-49
2022/06/05 03:37:27;;;;;;;;;;;;;;;18.51;100.00;99152.66;5151974;27;19935;-49
2022/06/05 03:39:54;;;;;;;;;;;;;;;18.68;100.00;99057.19;5151843;27;19930;-48
2022/06/05 03:42:20;;;;;;;;;;;;;;;18.71;100.00;99008.38;5151875;27;19922;-51
2022/06/05 03:44:45;;;;;;;;;;;;;;;19.08;100.00;98992.66;5152263;27;20331;-53
2022/06/05 03:47:11;;;;;;;;;;;;;;;19.05;100.00;98930.38;5151877;27;19956;-48
2022/06/05 03:49:38;;;;;;;;;;;;;;;19.30;100.00;98974.34;5151964;27;19923;-52
2022/06/05 03:52:04;;;;;;;;;;;;;;;19.67;100.00;98883.41;5151679;27;19922;-49
2022/06/05 03:54:31;;;;;;;;;;;;;;;19.69;100.00;98811.44;5151853;27;19976;-51
2022/06/05 03:56:57;;;;;;;;;;;;;;;19.81;100.00;98780.16;5151925;27;19926;-51
2022/06/05 03:59:23;;;;;;;;;;;;;;;20.13;100.00;98690.25;5151921;27;20377;-48
2022/06/05 04:01:49;;;;;;;;;;;;;;;20.45;100.00;98603.00;5151657;27;19923;-50
2022/06/05 04:04:15;;;;;;;;;;;;;;;20.12;100.00;98607.97;5151539;27;19968;-49
2022/06/05 04:06:41;;;;;;;;;;;;;;;20.13;100.00;98617.13;5151643;27;19930;-49
2022/06/05 04:09:08;;;;;;;;;;;;;;;20.37;100.00;98582.19;5151646;27;19968;-48
2022/06/05 04:11:35;;;;;;;;;;;;;;;20.61;100.00;98568.72;5151570;27;19923;-48
2022/06/05 04:14:02;;;;;;;;;;;;;;;20.46;100.00;98570.41;5151380;27;19977;-51
2022/06/05 04:16:29;;;;;;;;;;;;;;;20.71;100.00;98558.47;5151640;27;20298;-52
2022/06/05 04:18:56;;;;;;;;;;;;;;;21.28;100.00;98511.13;5151626;27;19923;-52
2022/06/05 04:21:23;;;;;;;;;;;;;;;21.44;100.00;98496.25;5153036;27;20392;-51
2022/06/05 04:23:50;;;;;;;;;;;;;;;21.28;100.00;98449.81;5155230;27;19973;-49
2022/06/05 04:26:17;;;;;;;;;;;;;;;21.58;100.00;98460.25;5155253;27;19929;-48
2022/06/05 04:28:43;;;;;;;;;;;;;;;21.56;100.00;98459.16;5154954;27;19923;-48
2022/06/05 04:31:18;;;;;;;;;;;;;;;21.71;100.00;98440.63;5155066;27;19923;-48
2022/06/05 04:33:44;;;;;;;;;;;;;;;22.22;100.00;98417.88;5154903;27;19923;-49
2022/06/05 04:36:10;;;;;;;;;;;;;;;21.97;100.00;98401.38;5154885;27;19923;-52
2022/06/05 04:38:36;;;;;;;;;;;;;;;22.14;100.00;98388.69;5154828;27;20327;-51
2022/06/05 04:41:02;;;;;;;;;;;;;;;22.13;100.00;98389.94;5154633;27;19922;-53
2022/06/05 04:43:28;;;;;;;;;;;;;;;22.17;100.00;98398.19;5154726;27;19970;-50
2022/06/05 04:45:54;;;;;;;;;;;;;;;21.99;100.00;98398.88;5154876;27;19922;-52
2022/06/05 04:48:21;;;;;;;;;;;;;;;21.97;100.00;98390.97;5154809;27;19923;-52
2022/06/05 04:50:47;;;;;;;;;;;;;;;22.20;100.00;98397.28;5154781;27;19922;-51
2022/06/05 04:53:13;;;;;;;;;;;;;;;22.52;100.00;98396.66;5154520;27;19930;-49
2022/06/05 04:55:39;;;;;;;;;;;;;;;22.28;100.00;98399.28;5154763;27;20348;-48
2022/06/05 04:58:05;;;;;;;;;;;;;;;22.49;100.00;98397.63;5154492;27;19930;-48
2022/06/05 05:00:31;;;;;;;;;;;;;;;22.89;100.00;98393.09;5154652;27;19967;-50
2022/06/05 05:02:57;;;;;;;;;;;;;;;22.87;100.00;98401.97;5154378;27;19926;-48
2022/06/05 05:05:24;;;;;;;;;;;;;;;23.20;100.00;98415.31;5154536;27;19922;-50
2022/06/05 05:07:50;;;;;;;;;;;;;;;23.67;100.00;98397.91;5154320;27;19922;-48
2022/06/05 05:10:16;;;;;;;;;;;;;;;23.66;100.00;98413.16;5154869;27;19945;-49
2022/06/05 05:12:42;;;;;;;;;;;;;;;23.80;100.00;98419.34;5154564;27;20382;-48
2022/06/05 05:15:09;;;;;;;;;;;;;;;24.02;100.00;98436.66;5154544;27;19929;-49
2022/06/05 05:17:36;;;;;;;;;;;;;;;24.13;100.00;98444.56;5154446;27;20298;-50
2022/06/05 05:20:02;;;;;;;;;;;;;;;24.02;100.00;98473.06;5154238;27;19977;-48
2022/06/05 05:22:29;;;;;;;;;;;;;;;24.45;100.00;98462.59;5154160;27;19923;-49
2022/06/05 05:24:55;;;;;;;;;;;;;;;24.42;100.00;98491.56;5154298;27;19923;-50
2022/06/05 05:27:21;;;;;;;;;;;;;;;24.67;100.00;98487.53;5154274;27;20346;-48
2022/06/05 05:29:47;;;;;;;;;;;;;;;24.59;100.00;98525.56;5154031;27;19923;-48
2022/06/05 05:32:13;;;;;;;;;;;;;;;24.70;100.00;98491.41;5153009;27;19922;-49
2022/06/05 05:34:39;;;;;;;;;;;;;;;25.26;100.00;98489.75;5153678;27;19923;-49
2022/06/05 05:37:05;;;;;;;;;;;;;;;25.35;100.00;98512.09;5154276;27;19923;-48
2022/06/05 05:42:16;;;;;;;;;;;;;;;25.56;100.00;98538.25;5154028;27;19984;-51
2022/06/05 05:44:43;;;;;;;;;;;;;;;25.07;100.00;98537.53;5153946;27;19927;-53
2022/06/05 05:47:11;;;;;;;;;;;;;;;25.62;100.00;98529.94;5153818;27;19930;-53
2022/06/05 05:49:37;;;;;;;;;;;;;;;25.98;100.00;98629.91;5153838;27;19922;-52
2022/06/05 05:52:03;;;;;;;;;;;;;;;26.35;100.00;98643.56;5153529;27;20394;-50
2022/06/05 05:54:29;;;;;;;;;;;;;;;26.54;100.00;98653.38;5153668;27;19923;-52
2022/06/05 05:56:56;;;;;;;;;;;;;;;26.40;100.00;98645.69;5153561;27;19930;-49
2022/06/05 05:59:22;;;;;;;;;;;;;;;26.43;100.00;98634.25;5153706;27;19970;-52
2022/06/05 06:01:48;;;;;;;;;;;;;;;26.33;100.00;98669.34;5153314;27;20298;-49
2022/06/05 06:04:14;;;;;;;;;;;;;;;25.54;100.00;98732.38;5153442;27;20301;-48
2022/06/05 06:06:42;;;;;;;;;;;;;;;25.92;100.00;98696.41;5153534;27;19930;-49
2022/06/05 06:09:08;;;;;;;;;;;;;;;26.19;100.00;98664.47;5153430;27;20400;-51
2022/06/05 06:11:34;;;;;;;;;;;;;;;25.54;100.00;98726.00;5153395;27;19923;-49
2022/06/05 06:14:00;;;;;;;;;;;;;;;25.72;100.00;98708.25;5153395;27;19923;-49
2022/06/05 06:16:27;;;;;;;;;;;;;;;26.14;100.00;98749.44;5153417;27;19923;-49
2022/06/05 06:18:53;;;;;;;;;;;;;;;25.66;100.00;98749.44;5153329;27;19923;-51
2022/06/05 06:21:19;;;;;;;;;;;;;;;26.37;100.00;98745.03;5153495;27;19962;-49
2022/06/05 06:23:45;;;;;;;;;;;;;;;26.79;100.00;98791.78;5153349;27;20409;-52
2022/06/05 06:26:12;;;;;;;;;;;;;;;26.73;100.00;98802.97;5153364;27;20013;-50
2022/06/05 06:28:38;;;;;;;;;;;;;;;27.02;100.00;98826.69;5153007;27;19922;-50
2022/06/05 06:31:05;;;;;;;;;;;;;;;27.23;100.00;98788.97;5153453;27;19929;-52
2022/06/05 06:33:32;;;;;;;;;;;;;;;27.20;100.00;98799.16;5152970;27;19975;-49
2022/06/05 06:36:00;;;;;;;;;;;;;;;27.17;100.00;98802.19;5153173;27;20310;-50
2022/06/05 06:38:26;;;;;;;;;;;;;;;26.65;100.00;98825.03;5153146;27;19930;-49
2022/06/05 06:40:57;;;;;;;;;;;;;;;27.00;100.00;98827.19;5152827;27;19927;-53
2022/06/05 06:43:23;;;;;;;;;;;;;;;27.80;100.00;98813.13;5152619;27;19922;-50
2022/06/05 06:45:49;;;;;;;;;;;;;;;27.99;100.00;98793.88;5153085;27;20374;-49
2022/06/05 06:48:16;;;;;;;;;;;;;;;27.52;100.00;98888.69;5153384;27;20328;-49
2022/06/05 06:50:42;;;;;;;;;;;;;;;27.14;100.00;98969.94;5152819;27;20298;-52
2022/06/05 06:53:09;;;;;;;;;;;;;;;27.36;100.00;98892.81;5153051;27;20025;-49
2022/06/05 06:55:36;;;;;;;;;;;;;;;27.32;100.00;98929.56;5152663;27;20010;-49
2022/06/05 06:58:02;;;;;;;;;;;;;;;25.66;100.00;98957.97;5152712;27;19972;-52
2022/06/05 07:00:28;;;;;;;;;;;;;;;26.78;100.00;98911.16;5152384;27;20370;-49
2022/06/05 07:02:54;;;;;;;;;;;;;;;27.55;100.00;98927.13;5152370;27;19930;-49
2022/06/05 07:05:21;;;;;;;;;;;;;;;26.56;100.00;98974.13;5152621;27;19923;-52
2022/06/05 07:07:47;;;;;;;;;;;;;;;26.83;100.00;98941.44;5152535;27;19929;-52
2022/06/05 07:10:13;;;;;;;;;;;;;;;27.15;100.00;98965.84;5152522;27;20426;-49
2022/06/05 07:12:39;;;;;;;;;;;;;;;27.65;100.00;99007.44;5152119;27;19923;-50
2022/06/05 07:15:06;;;;;;;;;;;;;;;27.82;100.00;99030.28;5152561;27;19972;-49
2022/06/05 07:17:32;;;;;;;;;;;;;;;27.33;100.00;99051.41;5152411;27;20425;-53
2022/06/05 07:19:58;;;;;;;;;;;;;;;26.94;100.00;99026.03;5152242;27;19930;-49
2022/06/05 07:22:25;;;;;;;;;;;;;;;27.46;100.00;99037.84;5152101;27;20029;-51
2022/06/05 07:24:51;;;;;;;;;;;;;;;28.03;100.00;99039.59;5152276;27;19922;-50
2022/06/05 07:27:17;;;;;;;;;;;;;;;27.77;100.00;99040.19;5152083;27;19922;-49
2022/06/05 07:29:43;;;;;;;;;;;;;;;28.02;100.00;99036.00;5152429;27;19922;-49
2022/06/05 07:32:11;;;;;;;;;;;;;;;27.79;100.00;99017.16;5152208;27;20023;-50
2022/06/05 07:34:37;;;;;;;;;;;;;;;26.84;100.00;99011.25;5152012;27;19930;-49
2022/06/05 07:37:03;;;;;;;;;;;;;;;27.14;100.00;98966.34;5152127;27;19970;-52
2022/06/05 07:39:30;;;;;;;;;;;;;;;26.05;100.00;98958.91;5151877;27;19923;-50
2022/06/05 07:41:58;;;;;;;;;;;;;;;24.77;100.00;98917.91;5151960;27;19970;-49
2022/06/05 07:44:24;;;;;;;;;;;;;;;25.65;100.00;98882.66;5151716;27;19923;-49
2022/06/05 07:46:51;;;;;;;;;;;;;;;24.74;100.00;98923.66;5151909;27;19948;-49
2022/06/05 07:49:17;;;;;;;;;;;;;;;23.49;100.00;98871.56;5151773;27;19923;-48
2022/06/05 07:54:27;;;;;;;;;;;;;;;24.65;100.00;98905.59;5151669;27;19956;-49
2022/06/05 07:56:54;;;;;;;;;;;;;;;25.16;100.00;98929.44;5150846;27;20453;-50
2022/06/05 07:59:20;;;;;;;;;;;;;;;26.29;100.00;98914.00;5152125;27;19929;-53
2022/06/05 08:01:46;;;;;;;;;;;;;;;26.61;100.00;98936.13;5151841;27;20465;-50
2022/06/05 08:04:12;;;;;;;;;;;;;;;26.65;100.00;98956.41;5152326;27;20263;-52
2022/06/05 08:06:38;;;;;;;;;;;;;;;26.41;100.00;98985.28;5151766;27;20386;-48
2022/06/05 08:09:05;;;;;;;;;;;;;;;26.29;100.00;98953.34;5151691;27;19923;-52
2022/06/05 08:11:31;;;;;;;;;;;;;;;26.63;100.00;98931.59;5151815;27;20014;-52
2022/06/05 08:13:58;;;;;;;;;;;;;;;26.43;100.00;98943.44;5151713;27;20278;-50
2022/06/05 08:16:24;;;;;;;;;;;;;;;27.23;100.00;98957.06;5151427;27;19923;-50
2022/06/05 08:18:52;;;;;;;;;;;;;;;26.83;100.00;98955.50;5151670;27;19977;-53
2022/06/05 08:21:18;;;;;;;;;;;;;;;27.63;100.00;98968.50;5151289;27;19923;-52
2022/06/05 08:23:44;;;;;;;;;;;;;;;27.72;100.00;98976.06;5151808;27;19923;-51
2022/06/05 08:26:10;;;;;;;;;;;;;;;28.50;100.00;98979.34;5151691;27;20297;-52
2022/06/05 08:28:36;;;;;;;;;;;;;;;27.99;100.00;98985.47;5151478;27;19923;-52
2022/06/05 08:31:03;;;;;;;;;;;;;;;27.16;100.00;98970.25;5151418;27;20405;-53
2022/06/05 08:33:29;;;;;;;;;;;;;;;27.49;100.00;98966.47;5151271;27;20047;-51
2022/06/05 08:35:55;;;;;;;;;;;;;;;27.81;100.00;98992.88;5151607;27;20302;-52
2022/06/05 08:41:27;;;;;;;;;;;;;;;29.13;100.00;99007.06;5151529;27;19976;-52
2022/06/05 08:44:00;;;;;;;;;;;;;;;29.48;100.00;99023.06;5151369;27;20045;-50
2022/06/05 08:46:27;;;;;;;;;;;;;;;29.14;100.00;99039.66;5151092;27;19923;-53
2022/06/05 08:48:54;;;;;;;;;;;;;;;28.65;100.00;99035.66;5151350;27;19945;-51
2022/06/05 08:51:22;;;;;;;;;;;;;;;28.53;100.00;99043.22;5150972;27;20029;-53
2022/06/05 08:53:51;;;;;;;;;;;;;;;29.51;100.00;99036.19;5151407;27;19991;-52
2022/06/05 08:56:25;;;;;;;;;;;;;;;29.56;100.00;99029.84;5150819;27;20413;-51
2022/06/05 08:58:54;;;;;;;;;;;;;;;29.19;100.00;99029.69;5151246;27;19923;-53
2022/06/05 09:01:24;;;;;;;;;;;;;;;27.62;100.00;99011.22;5150906;27;20416;-52
2022/06/05 09:03:56;;;;;;;;;;;;;;;26.16;100.00;98966.06;5151141;27;19923;-50
2022/06/05 09:06:26;;;;;;;;;;;;;;;25.86;100.00;98900.50;5150936;27;19927;-53
2022/06/05 09:08:55;;;;;;;;;;;;;;;24.96;100.00;98862.59;5154290;27;19927;-49
2022/06/05 09:11:26;;;;;;;;;;;;;;;25.63;100.00;98863.50;5154426;27;20377;-48
2022/06/05 09:13:57;;;;;;;;;;;;;;;24.78;100.00;98863.38;5154488;27;19923;-48
2022/06/05 09:16:24;;;;;;;;;;;;;;;25.31;100.00;98912.72;5154219;27;19923;-50
2022/06/05 09:18:52;;;;;;;;;;;;;;;24.59;100.00;98921.50;5154296;27;19945;-49
2022/06/05 09:21:21;;;;;;;;;;;;;;;25.11;100.00;98928.00;5154573;27;20024;-52
2022/06/05 09:23:51;;;;;;;;;;;;;;;26.31;100.00;98974.56;5154124;27;19971;-51
2022/06/05 09:26:20;;;;;;;;;;;;;;;26.84;100.00;98968.31;5154416;27;19922;-49
2022/06/05 09:28:56;;;;;;;;;;;;;;;27.67;100.00;98954.22;5153964;27;19927;-50
2022/06/05 09:31:38;;;;;;;;;;;;;;;27.89;100.00;98945.38;5154184;27;20465;-53
2022/06/05 09:34:11;;;;;;;;;;;;;;;26.02;100.00;98956.28;5154136;27;19945;-48
2022/06/05 09:36:38;;;;;;;;;;;;;;;24.68;100.00;98901.06;5153989;27;20232;-49
2022/06/05 09:39:15;;;;;;;;;;;;;;;23.80;100.00;98869.97;5154105;27;20457;-51
2022/06/05 09:41:46;;;;;;;;;;;;;;;23.16;100.00;98831.31;5153729;27;19926;-51
2022/06/05 09:44:19;;;;;;;;;;;;;;;23.33;100.00;98792.69;5153834;27;19928;-52
2022/06/05 09:47:05;;;;;;;;;;;;;;;23.86;100.00;98772.94;5153833;27;19922;-51
2022/06/05 09:49:35;;;;;;;;;;;;;;;25.66;100.00;98833.66;5145111;27;19922;-50
2022/06/05 09:52:12;;;;;;;;;;;;;;;26.94;100.00;98899.47;5154041;27;20038;-52
2022/06/05 09:54:40;;;;;;;;;;;;;;;27.49;100.00;98960.06;5153569;27;19923;-51
2022/06/05 10:00:00;;;;;;;;;;;;;;;26.31;100.00;98980.97;5153568;27;19967;-52
2022/06/05 10:02:27;;;;;;;;;;;;;;;25.88;100.00;98954.19;5153829;27;19923;-50
2022/06/05 10:04:54;;;;;;;;;;;;;;;25.45;100.00;98979.38;5153760;27;19923;-49
2022/06/05 10:07:25;;;;;;;;;;;;;;;24.87;100.00;98916.66;5153258;27;19922;-48
2022/06/05 10:09:51;;;;;;;;;;;;;;;25.06;100.00;98908.22;5153508;27;20396;-50
2022/06/05 10:12:20;;;;;;;;;;;;;;;24.75;100.00;98892.34;5153582;27;19923;-50
2022/06/05 10:14:50;;;;;;;;;;;;;;;24.75;100.00;98919.59;5153864;27;19927;-50
2022/06/05 10:17:36;;;;;;;;;;;;;;;24.89;100.00;98888.13;5153437;27;20470;-48
2022/06/05 10:20:09;;;;;;;;;;;;;;;24.15;100.00;98864.91;5144190;27;19927;-51
2022/06/05 10:22:41;;;;;;;;;;;;;;;24.18;100.00;98877.97;5153432;27;19923;-50
2022/06/05 10:25:15;;;;;;;;;;;;;;;24.51;100.00;98872.59;5153443;27;20278;-50
2022/06/05 10:27:47;;;;;;;;;;;;;;;24.10;100.00;98911.09;5153458;27;20035;-52
2022/06/05 10:30:15;;;;;;;;;;;;;;;24.58;100.00;98911.50;5152959;27;19923;-50
2022/06/05 10:32:53;;;;;;;;;;;;;;;25.00;100.00;98891.25;5153317;27;20004;-49
2022/06/05 10:35:23;;;;;;;;;;;;;;;25.29;100.00;98903.97;5153106;27;19922;-48
2022/06/05 10:37:53;;;;;;;;;;;;;;;24.56;100.00;98949.66;5152970;27;19929;-50
2022/06/05 10:40:23;;;;;;;;;;;;;;;24.21;100.00;98949.88;5153278;27;20227;-50
2022/06/05 10:42:53;;;;;;;;;;;;;;;24.14;100.00;98917.34;5152839;27;19922;-49
2022/06/05 10:45:35;;;;;;;;;;;;;;;24.93;100.00;98944.06;5152833;27;19922;-50
2022/06/05 10:48:12;;;;;;;;;;;;;;;25.44;100.00;98938.53;5149646;27;19933;-48
2022/06/05 10:50:45;;;;;;;;;;;;;;;25.49;100.00;98918.28;5152843;27;19922;-48
2022/06/05 10:53:16;;;;;;;;;;;;;;;25.75;100.00;98927.03;5152751;27;19923;-48
2022/06/05 10:55:49;;;;;;;;;;;;;;;25.74;100.00;98930.34;5153244;27;20466;-49
2022/06/05 10:58:17;;;;;;;;;;;;;;;24.86;100.00;98931.91;5152684;27;19927;-47
2022/06/05 11:00:57;;;;;;;;;;;;;;;24.24;100.00;98878.94;5152584;27;19922;-50
2022/06/05 11:03:27;;;;;;;;;;;;;;;24.27;100.00;98866.00;5152512;27;19930;-49
2022/06/05 11:06:03;;;;;;;;;;;;;;;24.93;100.00;98899.22;5152641;27;19929;-48
2022/06/05 11:08:32;;;;;;;;;;;;;;;25.00;100.00;98898.88;5152543;27;19929;-47
2022/06/05 11:13:54;;;;;;;;;;;;;;;24.70;100.00;98911.84;5152817;27;19946;-48
2022/06/05 11:16:26;;;;;;;;;;;;;;;25.22;100.00;98898.69;5152434;27;19929;-50
2022/06/05 11:18:58;;;;;;;;;;;;;;;24.16;100.00;98906.47;5152653;27;20331;-49
2022/06/05 11:21:26;;;;;;;;;;;;;;;24.38;100.00;98886.72;5152296;27;20017;-48
2022/06/05 11:23:54;;;;;;;;;;;;;;;24.44;100.00;98922.56;5152012;27;19927;-48
2022/06/05 11:26:23;;;;;;;;;;;;;;;24.94;100.00;98926.00;5152269;27;19934;-48
2022/06/05 11:28:57;;;;;;;;;;;;;;;25.13;100.00;98921.19;5152081;27;19923;-48
2022/06/05 11:31:31;;;;;;;;;;;;;;;24.82;100.00;98919.28;5150988;27;19930;-49
2022/06/05 11:34:01;;;;;;;;;;;;;;;24.14;100.00;98917.34;5152336;27;19970;-50
2022/06/05 11:36:30;;;;;;;;;;;;;;;23.65;100.00;98894.91;5152128;27;19922;-47
2022/06/05 11:39:02;;;;;;;;;;;;;;;24.13;100.00;98906.59;5151947;27;19930;-49
2022/06/05 11:41:31;;;;;;;;;;;;;;;24.05;100.00;98864.09;5152385;27;19923;-48
2022/06/05 11:44:12;;;;;;;;;;;;;;;23.54;100.00;98858.19;5152041;27;20402;-50
2022/06/05 11:46:47;;;;;;;;;;;;;;;23.04;100.00;98837.75;5152004;27;19923;-49
2022/06/05 11:49:16;;;;;;;;;;;;;;;22.30;100.00;98856.75;5152194;27;20297;-51
2022/06/05 11:51:52;;;;;;;;;;;;;;;21.61;100.00;98808.00;5151933;27;19927;-51
2022/06/05 11:54:20;;;;;;;;;;;;;;;22.62;100.00;98787.78;5152091;27;19927;-51
2022/06/05 11:56:54;;;;;;;;;;;;;;;22.89;100.00;98806.72;5151911;27;20412;-48
2022/06/05 11:59:25;;;;;;;;;;;;;;;23.18;100.00;98868.75;5151816;27;19930;-51
2022/06/05 12:01:54;;;;;;;;;;;;;;;23.67;100.00;98859.63;5151965;27;19953;-51
2022/06/05 12:04:26;;;;;;;;;;;;;;;23.65;100.00;98824.94;5151693;27;19923;-47
2022/06/05 12:06:55;;;;;;;;;;;;;;;23.66;100.00;98860.09;5151603;27;19926;-49
2022/06/05 12:09:22;;;;;;;;;;;;;;;24.00;100.00;98838.75;5151510;27;19930;-50
2022/06/05 12:11:53;;;;;;;;;;;;;;;24.36;100.00;98812.81;5151594;27;19923;-49
2022/06/05 12:14:23;;;;;;;;;;;;;;;24.11;100.00;98830.69;5151605;27;19922;-51
2022/06/05 12:16:51;;;;;;;;;;;;;;;24.25;100.00;98876.91;5151699;27;20311;-52
2022/06/05 12:19:25;;;;;;;;;;;;;;;23.84;100.00;98845.41;5151564;27;19929;-48
2022/06/05 12:21:57;;;;;;;;;;;;;;;23.56;100.00;98836.91;5151538;27;20382;-48
2022/06/05 12:24:25;;;;;;;;;;;;;;;24.03;100.00;98799.41;5151508;27;19996;-50
2022/06/05 12:26:53;;;;;;;;;;;;;;;23.88;100.00;98820.84;5151376;27;19923;-49
2022/06/05 12:29:20;;;;;;;;;;;;;;;24.04;100.00;98836.59;5151438;27;20320;-47
2022/06/05 12:31:48;;;;;;;;;;;;;;;23.77;100.00;98814.91;5151458;27;20409;-50
2022/06/05 12:34:16;;;;;;;;;;;;;;;23.91;100.00;98775.13;5151440;27;19923;-48
2022/06/05 12:36:44;;;;;;;;;;;;;;;23.56;100.00;98810.94;5151224;27;19934;-50
2022/06/05 12:39:15;;;;;;;;;;;;;;;23.65;100.00;98806.13;5151474;27;20508;-48
2022/06/05 12:41:45;;;;;;;;;;;;;;;24.24;100.00;98814.50;5151646;27;19927;-49
2022/06/05 12:44:16;;;;;;;;;;;;;;;23.93;100.00;98832.22;5154975;27;19922;-49
2022/06/05 12:46:45;;;;;;;;;;;;;;;23.67;100.00;98851.25;5154785;27;20518;-52
2022/06/05 12:49:23;;;;;;;;;;;;;;;23.64;100.00;98846.56;5155009;27;19923;-49
2022/06/05 12:51:52;;;;;;;;;;;;;;;23.12;100.00;98814.66;5154794;27;20396;-50
2022/06/05 12:54:23;;;;;;;;;;;;;;;23.55;100.00;98821.34;5154568;27;20013;-52
2022/06/05 12:56:51;;;;;;;;;;;;;;;23.33;100.00;98834.66;5154920;27;19927;-50
2022/06/05 12:59:19;;;;;;;;;;;;;;;23.37;100.00;98791.31;5154813;27;19922;-49